AVA225 SAWC-SAWH
Flight info
| Callsign | AVA225 |
|---|---|
| Flight time | 1h 2m |
| Altitude | 37000 |
| Route | DEVIS2D DEVIS UW52 GAL UW42 GRA DCT DABLI DABLI1Q |
| Aircraft | A320/M-SDE3FGHIRWY/LB1 |
Departure
| Time | 2026-05-07 20:54 |
|---|---|
| Airport | El Calafate - Commander Armando Tola International Airport (SAWC) |
Arrival
| Time | 2026-05-07 21:57 |
|---|---|
| Airport | Ushuaia - Malvinas Argentinas International Airport (SAWH) |
| Time | Latitude | Longitude | Altitude | Speed | Heading |
|---|---|---|---|---|---|
| 2026-05-07 19:58 | -50.28328 | -72.05319 | 641 ft | 0 kts | 232° |
| 2026-05-07 20:42 | -50.28317 | -72.05301 | 641 ft | 4 kts | 223° |
| 2026-05-07 20:42 | -50.28301 | -72.05277 | 643 ft | 4 kts | 212° |
| 2026-05-07 20:43 | -50.28277 | -72.05264 | 641 ft | 4 kts | 179° |
| 2026-05-07 20:43 | -50.28254 | -72.05264 | 641 ft | 4 kts | 218° |
| 2026-05-07 20:43 | -50.28250 | -72.05258 | 641 ft | 1 kts | 264° |
| 2026-05-07 20:43 | -50.28250 | -72.05255 | 641 ft | 0 kts | 264° |
| 2026-05-07 20:49 | -50.28250 | -72.05270 | 641 ft | 3 kts | 264° |
| 2026-05-07 20:49 | -50.28254 | -72.05330 | 641 ft | 8 kts | 266° |
| 2026-05-07 20:49 | -50.28251 | -72.05358 | 641 ft | 9 kts | 288° |
| 2026-05-07 20:50 | -50.28185 | -72.05405 | 641 ft | 13 kts | 354° |
| 2026-05-07 20:50 | -50.28113 | -72.05412 | 641 ft | 11 kts | 354° |
| 2026-05-07 20:50 | -50.28031 | -72.05388 | 643 ft | 14 kts | 55° |
| 2026-05-07 20:50 | -50.28013 | -72.05216 | 643 ft | 18 kts | 84° |
| 2026-05-07 20:51 | -50.28000 | -72.04999 | 644 ft | 22 kts | 84° |
| 2026-05-07 20:51 | -50.27985 | -72.04746 | 644 ft | 25 kts | 84° |
| 2026-05-07 20:51 | -50.27968 | -72.04452 | 643 ft | 29 kts | 85° |
| 2026-05-07 20:51 | -50.27947 | -72.04117 | 641 ft | 33 kts | 84° |
| 2026-05-07 20:52 | -50.27930 | -72.03818 | 640 ft | 17 kts | 89° |
| 2026-05-07 20:52 | -50.27961 | -72.03648 | 641 ft | 16 kts | 100° |
| 2026-05-07 20:52 | -50.27949 | -72.03554 | 642 ft | 6 kts | 38° |
| 2026-05-07 20:52 | -50.27922 | -72.03557 | 644 ft | 3 kts | 313° |
| 2026-05-07 20:53 | -50.27920 | -72.03576 | 642 ft | 0 kts | 272° |
| 2026-05-07 20:53 | -50.27920 | -72.03584 | 642 ft | 5 kts | 271° |
| 2026-05-07 20:54 | -50.27935 | -72.03901 | 640 ft | 65 kts | 264° |
| 2026-05-07 20:54 | -50.27998 | -72.04968 | 646 ft | 129 kts | 264° |
| 2026-05-07 20:54 | -50.28120 | -72.06542 | 1025 ft | 144 kts | 264° |
| 2026-05-07 20:54 | -50.28201 | -72.08090 | 1740 ft | 145 kts | 266° |
| 2026-05-07 20:55 | -50.28290 | -72.09744 | 2210 ft | 163 kts | 265° |
| 2026-05-07 20:55 | -50.28400 | -72.11624 | 2521 ft | 185 kts | 265° |
| 2026-05-07 20:55 | -50.28527 | -72.13751 | 2824 ft | 210 kts | 263° |
| 2026-05-07 20:55 | -50.28671 | -72.16151 | 3225 ft | 234 kts | 263° |
| 2026-05-07 20:56 | -50.28828 | -72.18792 | 3812 ft | 251 kts | 263° |
| 2026-05-07 20:56 | -50.28988 | -72.21534 | 4678 ft | 256 kts | 263° |
| 2026-05-07 20:56 | -50.29150 | -72.24309 | 5617 ft | 257 kts | 263° |
| 2026-05-07 20:56 | -50.29311 | -72.27107 | 6523 ft | 261 kts | 263° |
| 2026-05-07 20:57 | -50.29473 | -72.29945 | 7424 ft | 264 kts | 263° |
| 2026-05-07 20:57 | -50.29634 | -72.32814 | 8296 ft | 267 kts | 263° |
| 2026-05-07 20:57 | -50.29799 | -72.35720 | 9139 ft | 271 kts | 261° |
| 2026-05-07 20:57 | -50.30251 | -72.38570 | 9940 ft | 272 kts | 245° |
| 2026-05-07 20:58 | -50.31217 | -72.41109 | 10745 ft | 274 kts | 229° |
| 2026-05-07 20:58 | -50.32619 | -72.43111 | 11553 ft | 275 kts | 213° |
| 2026-05-07 20:58 | -50.34265 | -72.44651 | 12363 ft | 277 kts | 210° |
| 2026-05-07 20:58 | -50.35944 | -72.46132 | 13126 ft | 280 kts | 203° |
| 2026-05-07 20:59 | -50.37839 | -72.46815 | 13810 ft | 285 kts | 182° |
| 2026-05-07 20:59 | -50.39823 | -72.46320 | 14312 ft | 301 kts | 161° |
| 2026-05-07 20:59 | -50.41646 | -72.44474 | 14461 ft | 330 kts | 135° |
| 2026-05-07 20:59 | -50.43025 | -72.41438 | 14590 ft | 354 kts | 125° |
| 2026-05-07 21:00 | -50.44371 | -72.38094 | 14862 ft | 369 kts | 124° |
| 2026-05-07 21:00 | -50.45741 | -72.34650 | 15399 ft | 375 kts | 124° |
| 2026-05-07 21:00 | -50.47128 | -72.31165 | 16011 ft | 379 kts | 124° |
| 2026-05-07 21:00 | -50.48530 | -72.27654 | 16580 ft | 383 kts | 124° |
| 2026-05-07 21:01 | -50.49951 | -72.24103 | 17135 ft | 387 kts | 124° |
| 2026-05-07 21:01 | -50.51388 | -72.20520 | 17666 ft | 391 kts | 124° |
| 2026-05-07 21:01 | -50.52842 | -72.16893 | 18216 ft | 394 kts | 124° |
| 2026-05-07 21:01 | -50.54306 | -72.13243 | 18754 ft | 397 kts | 125° |
| 2026-05-07 21:02 | -50.55777 | -72.09565 | 19266 ft | 400 kts | 125° |
| 2026-05-07 21:02 | -50.57264 | -72.05842 | 19771 ft | 404 kts | 126° |
| 2026-05-07 21:02 | -50.58756 | -72.02094 | 20274 ft | 407 kts | 126° |
| 2026-05-07 21:02 | -50.60257 | -71.98320 | 20756 ft | 409 kts | 126° |
| 2026-05-07 21:03 | -50.61773 | -71.94513 | 21220 ft | 413 kts | 126° |
| 2026-05-07 21:03 | -50.63303 | -71.90677 | 21668 ft | 416 kts | 126° |
| 2026-05-07 21:03 | -50.64844 | -71.86813 | 22106 ft | 419 kts | 126° |
| 2026-05-07 21:03 | -50.66398 | -71.82919 | 22553 ft | 422 kts | 127° |
| 2026-05-07 21:04 | -50.67729 | -71.79577 | 22915 ft | 424 kts | 127° |
| 2026-05-07 21:04 | -50.68635 | -71.77281 | 23157 ft | 426 kts | 127° |
| 2026-05-07 21:04 | -50.70196 | -71.73326 | 23646 ft | 425 kts | 127° |
| 2026-05-07 21:05 | -50.71749 | -71.69388 | 24179 ft | 424 kts | 127° |
| 2026-05-07 21:05 | -50.73309 | -71.65440 | 24578 ft | 425 kts | 127° |
| 2026-05-07 21:05 | -50.74879 | -71.61476 | 24948 ft | 428 kts | 127° |
| 2026-05-07 21:05 | -50.76458 | -71.57483 | 25293 ft | 431 kts | 127° |
| 2026-05-07 21:06 | -50.78040 | -71.53466 | 25648 ft | 433 kts | 127° |
| 2026-05-07 21:06 | -50.79631 | -71.49417 | 25982 ft | 436 kts | 127° |
| 2026-05-07 21:06 | -50.81230 | -71.45337 | 26306 ft | 438 kts | 127° |
| 2026-05-07 21:06 | -50.81608 | -71.44373 | 26381 ft | 439 kts | 127° |
| 2026-05-07 21:07 | -50.83213 | -71.40267 | 26675 ft | 441 kts | 127° |
| 2026-05-07 21:07 | -50.84826 | -71.36136 | 26991 ft | 444 kts | 127° |
| 2026-05-07 21:07 | -50.86445 | -71.31987 | 27283 ft | 446 kts | 127° |
| 2026-05-07 21:07 | -50.88078 | -71.27801 | 27567 ft | 448 kts | 126° |
| 2026-05-07 21:08 | -50.89713 | -71.23609 | 27841 ft | 450 kts | 126° |
| 2026-05-07 21:08 | -50.91355 | -71.19380 | 28116 ft | 452 kts | 126° |
| 2026-05-07 21:08 | -50.92998 | -71.15131 | 28387 ft | 454 kts | 126° |
| 2026-05-07 21:08 | -50.94650 | -71.10856 | 28666 ft | 456 kts | 126° |
| 2026-05-07 21:09 | -50.96298 | -71.06581 | 29045 ft | 455 kts | 126° |
| 2026-05-07 21:09 | -50.97940 | -71.02302 | 29405 ft | 455 kts | 126° |
| 2026-05-07 21:09 | -50.99581 | -70.98018 | 29763 ft | 455 kts | 126° |
| 2026-05-07 21:09 | -51.01220 | -70.93741 | 30116 ft | 454 kts | 126° |
| 2026-05-07 21:10 | -51.02857 | -70.89472 | 30466 ft | 454 kts | 126° |
| 2026-05-07 21:10 | -51.04497 | -70.85200 | 30777 ft | 454 kts | 126° |
| 2026-05-07 21:10 | -51.06138 | -70.80925 | 31094 ft | 454 kts | 126° |
| 2026-05-07 21:10 | -51.07778 | -70.76640 | 31388 ft | 455 kts | 126° |
| 2026-05-07 21:11 | -51.09413 | -70.72350 | 31696 ft | 455 kts | 126° |
| 2026-05-07 21:11 | -51.11048 | -70.68051 | 31997 ft | 456 kts | 126° |
| 2026-05-07 21:11 | -51.14318 | -70.59430 | 32602 ft | 456 kts | 126° |
| 2026-05-07 21:12 | -51.15954 | -70.55114 | 32901 ft | 456 kts | 125° |
| 2026-05-07 21:12 | -51.17593 | -70.50791 | 33193 ft | 457 kts | 125° |
| 2026-05-07 21:12 | -51.19230 | -70.46468 | 33479 ft | 457 kts | 125° |
| 2026-05-07 21:12 | -51.20869 | -70.42133 | 33777 ft | 457 kts | 125° |
| 2026-05-07 21:13 | -51.22506 | -70.37793 | 34089 ft | 457 kts | 125° |
| 2026-05-07 21:13 | -51.24138 | -70.33452 | 34396 ft | 457 kts | 125° |
| 2026-05-07 21:13 | -51.25772 | -70.29105 | 34682 ft | 458 kts | 125° |
| 2026-05-07 21:13 | -51.27406 | -70.24761 | 34975 ft | 458 kts | 125° |
| 2026-05-07 21:14 | -51.29039 | -70.20408 | 35269 ft | 458 kts | 125° |
| 2026-05-07 21:14 | -51.30669 | -70.16049 | 35521 ft | 458 kts | 125° |
| 2026-05-07 21:14 | -51.32297 | -70.11687 | 35757 ft | 458 kts | 125° |
| 2026-05-07 21:14 | -51.33926 | -70.07315 | 36003 ft | 459 kts | 124° |
| 2026-05-07 21:15 | -51.35551 | -70.02944 | 36243 ft | 458 kts | 124° |
| 2026-05-07 21:15 | -51.37175 | -69.98564 | 36449 ft | 459 kts | 124° |
| 2026-05-07 21:15 | -51.38799 | -69.94176 | 36628 ft | 460 kts | 124° |
| 2026-05-07 21:15 | -51.40425 | -69.89774 | 36845 ft | 460 kts | 124° |
| 2026-05-07 21:16 | -51.42051 | -69.85375 | 37060 ft | 459 kts | 124° |
| 2026-05-07 21:16 | -51.43670 | -69.80991 | 37116 ft | 458 kts | 124° |
| 2026-05-07 21:16 | -51.46902 | -69.72229 | 37116 ft | 457 kts | 124° |
| 2026-05-07 21:17 | -51.50117 | -69.63459 | 37115 ft | 457 kts | 124° |
| 2026-05-07 21:17 | -51.53324 | -69.54680 | 37106 ft | 457 kts | 124° |
| 2026-05-07 21:18 | -51.56521 | -69.45880 | 37109 ft | 457 kts | 123° |
| 2026-05-07 21:18 | -51.59946 | -69.37351 | 37108 ft | 452 kts | 134° |
| 2026-05-07 21:19 | -51.64657 | -69.30914 | 37110 ft | 443 kts | 153° |
| 2026-05-07 21:19 | -51.70204 | -69.26789 | 37106 ft | 440 kts | 160° |
| 2026-05-07 21:20 | -51.75816 | -69.22861 | 37109 ft | 441 kts | 159° |
| 2026-05-07 21:20 | -51.81435 | -69.18916 | 37111 ft | 441 kts | 159° |
| 2026-05-07 21:21 | -51.87059 | -69.14961 | 37110 ft | 442 kts | 159° |
| 2026-05-07 21:21 | -51.92669 | -69.11027 | 37116 ft | 442 kts | 159° |
| 2026-05-07 21:22 | -51.98301 | -69.07059 | 37120 ft | 442 kts | 159° |
| 2026-05-07 21:22 | -52.03934 | -69.03069 | 37120 ft | 443 kts | 159° |
| 2026-05-07 21:23 | -52.09562 | -68.99071 | 37129 ft | 443 kts | 159° |
| 2026-05-07 21:23 | -52.14983 | -68.95218 | 37136 ft | 443 kts | 159° |
| 2026-05-07 21:24 | -52.20619 | -68.91202 | 37139 ft | 443 kts | 159° |
| 2026-05-07 21:24 | -52.26250 | -68.87157 | 37143 ft | 443 kts | 158° |
| 2026-05-07 21:25 | -52.31890 | -68.83110 | 37147 ft | 444 kts | 159° |
| 2026-05-07 21:25 | -52.37526 | -68.79050 | 37153 ft | 444 kts | 158° |
| 2026-05-07 21:26 | -52.43171 | -68.74975 | 37157 ft | 444 kts | 158° |
| 2026-05-07 21:26 | -52.48807 | -68.70892 | 37157 ft | 444 kts | 158° |
| 2026-05-07 21:27 | -52.54449 | -68.66797 | 37161 ft | 444 kts | 158° |
| 2026-05-07 21:27 | -52.60090 | -68.62698 | 37173 ft | 444 kts | 158° |
| 2026-05-07 21:28 | -52.65731 | -68.58581 | 37178 ft | 444 kts | 158° |
| 2026-05-07 21:28 | -52.71367 | -68.54447 | 37183 ft | 445 kts | 158° |
| 2026-05-07 21:29 | -52.77010 | -68.50302 | 37195 ft | 445 kts | 158° |
| 2026-05-07 21:29 | -52.82647 | -68.46159 | 37194 ft | 444 kts | 158° |
| 2026-05-07 21:30 | -52.88284 | -68.42015 | 37200 ft | 445 kts | 158° |
| 2026-05-07 21:30 | -52.93920 | -68.37845 | 37204 ft | 444 kts | 158° |
| 2026-05-07 21:31 | -52.99543 | -68.33679 | 37205 ft | 444 kts | 158° |
| 2026-05-07 21:31 | -53.05165 | -68.29498 | 37208 ft | 443 kts | 158° |
| 2026-05-07 21:32 | -53.10783 | -68.25312 | 37215 ft | 443 kts | 158° |
| 2026-05-07 21:32 | -53.16393 | -68.21110 | 37223 ft | 443 kts | 158° |
| 2026-05-07 21:33 | -53.22000 | -68.16903 | 37223 ft | 443 kts | 158° |
| 2026-05-07 21:33 | -53.27603 | -68.12685 | 37229 ft | 443 kts | 158° |
| 2026-05-07 21:34 | -53.33203 | -68.08454 | 37227 ft | 442 kts | 158° |
| 2026-05-07 21:34 | -53.38803 | -68.04225 | 37230 ft | 442 kts | 158° |
| 2026-05-07 21:35 | -53.44397 | -67.99989 | 37237 ft | 442 kts | 157° |
| 2026-05-07 21:35 | -53.49972 | -67.95742 | 37081 ft | 436 kts | 157° |
| 2026-05-07 21:36 | -53.52711 | -67.93648 | 36684 ft | 430 kts | 157° |
| 2026-05-07 21:36 | -53.55413 | -67.91582 | 36243 ft | 425 kts | 157° |
| 2026-05-07 21:36 | -53.58084 | -67.89539 | 35766 ft | 421 kts | 157° |
| 2026-05-07 21:36 | -53.60733 | -67.87512 | 35237 ft | 419 kts | 157° |
| 2026-05-07 21:37 | -53.63378 | -67.85486 | 34685 ft | 417 kts | 157° |
| 2026-05-07 21:37 | -53.66006 | -67.83469 | 34188 ft | 414 kts | 157° |
| 2026-05-07 21:37 | -53.68614 | -67.81466 | 33709 ft | 411 kts | 156° |
| 2026-05-07 21:37 | -53.71200 | -67.79475 | 33245 ft | 408 kts | 156° |
| 2026-05-07 21:38 | -53.73764 | -67.77499 | 32785 ft | 404 kts | 156° |
| 2026-05-07 21:38 | -53.76351 | -67.75739 | 32315 ft | 400 kts | 163° |
| 2026-05-07 21:38 | -53.79032 | -67.74615 | 31862 ft | 396 kts | 171° |
| 2026-05-07 21:38 | -53.81752 | -67.74116 | 31391 ft | 393 kts | 177° |
| 2026-05-07 21:39 | -53.84458 | -67.73837 | 30922 ft | 389 kts | 177° |
| 2026-05-07 21:39 | -53.87147 | -67.73560 | 30453 ft | 386 kts | 177° |
| 2026-05-07 21:39 | -53.89817 | -67.73283 | 29990 ft | 384 kts | 176° |
| 2026-05-07 21:39 | -53.92464 | -67.73000 | 29535 ft | 381 kts | 176° |
| 2026-05-07 21:40 | -53.95092 | -67.72718 | 29040 ft | 378 kts | 176° |
| 2026-05-07 21:40 | -53.97749 | -67.72433 | 28208 ft | 386 kts | 177° |
| 2026-05-07 21:40 | -54.00393 | -67.72145 | 27825 ft | 377 kts | 177° |
| 2026-05-07 21:40 | -54.02981 | -67.71864 | 27063 ft | 371 kts | 177° |
| 2026-05-07 21:41 | -54.05534 | -67.71590 | 26280 ft | 366 kts | 177° |
| 2026-05-07 21:41 | -54.08051 | -67.71326 | 25497 ft | 361 kts | 178° |
| 2026-05-07 21:41 | -54.10540 | -67.71063 | 24718 ft | 357 kts | 178° |
| 2026-05-07 21:41 | -54.12998 | -67.70804 | 23952 ft | 353 kts | 178° |
| 2026-05-07 21:42 | -54.15428 | -67.70545 | 23215 ft | 349 kts | 178° |
| 2026-05-07 21:42 | -54.17832 | -67.70286 | 22484 ft | 345 kts | 178° |
| 2026-05-07 21:42 | -54.20206 | -67.70031 | 21780 ft | 340 kts | 178° |
| 2026-05-07 21:42 | -54.22552 | -67.69780 | 21069 ft | 337 kts | 178° |
| 2026-05-07 21:43 | -54.24870 | -67.69531 | 20367 ft | 333 kts | 178° |
| 2026-05-07 21:43 | -54.27163 | -67.69283 | 19677 ft | 329 kts | 178° |
| 2026-05-07 21:43 | -54.29430 | -67.69037 | 18995 ft | 325 kts | 179° |
| 2026-05-07 21:43 | -54.31671 | -67.68792 | 18323 ft | 322 kts | 178° |
| 2026-05-07 21:44 | -54.33887 | -67.68545 | 17707 ft | 317 kts | 179° |
| 2026-05-07 21:44 | -54.36086 | -67.68299 | 17162 ft | 318 kts | 178° |
| 2026-05-07 21:44 | -54.38272 | -67.68059 | 16767 ft | 317 kts | 178° |
| 2026-05-07 21:44 | -54.40466 | -67.67819 | 16465 ft | 313 kts | 178° |
| 2026-05-07 21:45 | -54.42629 | -67.67584 | 16107 ft | 310 kts | 178° |
| 2026-05-07 21:45 | -54.44766 | -67.67352 | 15483 ft | 307 kts | 178° |
| 2026-05-07 21:45 | -54.46893 | -67.67120 | 14908 ft | 308 kts | 178° |
| 2026-05-07 21:45 | -54.49017 | -67.66890 | 14546 ft | 307 kts | 178° |
| 2026-05-07 21:46 | -54.51127 | -67.66661 | 14037 ft | 304 kts | 178° |
| 2026-05-07 21:46 | -54.53236 | -67.66431 | 13721 ft | 302 kts | 178° |
| 2026-05-07 21:46 | -54.55308 | -67.66201 | 13202 ft | 297 kts | 178° |
| 2026-05-07 21:46 | -54.57363 | -67.65970 | 12552 ft | 296 kts | 178° |
| 2026-05-07 21:47 | -54.59414 | -67.65744 | 12009 ft | 296 kts | 177° |
| 2026-05-07 21:47 | -54.61449 | -67.65519 | 11692 ft | 291 kts | 177° |
| 2026-05-07 21:47 | -54.63455 | -67.65299 | 11050 ft | 289 kts | 177° |
| 2026-05-07 21:47 | -54.65448 | -67.65080 | 10470 ft | 287 kts | 177° |
| 2026-05-07 21:48 | -54.67444 | -67.64860 | 10107 ft | 286 kts | 176° |
| 2026-05-07 21:48 | -54.69385 | -67.64640 | 9973 ft | 273 kts | 176° |
| 2026-05-07 21:48 | -54.71212 | -67.64428 | 9761 ft | 257 kts | 176° |
| 2026-05-07 21:48 | -54.72969 | -67.64227 | 9329 ft | 253 kts | 176° |
| 2026-05-07 21:49 | -54.74719 | -67.64032 | 9031 ft | 251 kts | 176° |
| 2026-05-07 21:49 | -54.76444 | -67.63854 | 8593 ft | 247 kts | 178° |
| 2026-05-07 21:49 | -54.78144 | -67.64223 | 7991 ft | 249 kts | 196° |
| 2026-05-07 21:49 | -54.79709 | -67.65513 | 7324 ft | 253 kts | 215° |
| 2026-05-07 21:50 | -54.80964 | -67.67634 | 6676 ft | 254 kts | 233° |
| 2026-05-07 21:50 | -54.81735 | -67.70334 | 6287 ft | 247 kts | 253° |
| 2026-05-07 21:50 | -54.81996 | -67.73181 | 6029 ft | 234 kts | 265° |
| 2026-05-07 21:50 | -54.82114 | -67.75945 | 5787 ft | 228 kts | 264° |
| 2026-05-07 21:51 | -54.82236 | -67.78684 | 5559 ft | 229 kts | 264° |
| 2026-05-07 21:51 | -54.82356 | -67.81416 | 5319 ft | 227 kts | 264° |
| 2026-05-07 21:51 | -54.82473 | -67.84134 | 5154 ft | 224 kts | 264° |
| 2026-05-07 21:51 | -54.82585 | -67.86760 | 5099 ft | 216 kts | 263° |
| 2026-05-07 21:52 | -54.82693 | -67.89306 | 5015 ft | 208 kts | 263° |
| 2026-05-07 21:52 | -54.82797 | -67.91760 | 4739 ft | 202 kts | 264° |
| 2026-05-07 21:52 | -54.82899 | -67.94150 | 4448 ft | 198 kts | 263° |
| 2026-05-07 21:52 | -54.82997 | -67.96524 | 4137 ft | 197 kts | 263° |
| 2026-05-07 21:53 | -54.83096 | -67.98894 | 3841 ft | 198 kts | 263° |
| 2026-05-07 21:53 | -54.83194 | -68.01264 | 3523 ft | 199 kts | 263° |
| 2026-05-07 21:53 | -54.83292 | -68.03634 | 3234 ft | 196 kts | 263° |
| 2026-05-07 21:53 | -54.83387 | -68.05980 | 2920 ft | 193 kts | 263° |
| 2026-05-07 21:54 | -54.83474 | -68.08099 | 2664 ft | 185 kts | 264° |
| 2026-05-07 21:54 | -54.83563 | -68.10262 | 2373 ft | 175 kts | 265° |
| 2026-05-07 21:54 | -54.83647 | -68.12321 | 2110 ft | 168 kts | 265° |
| 2026-05-07 21:54 | -54.83726 | -68.14289 | 1849 ft | 161 kts | 266° |
| 2026-05-07 21:55 | -54.83802 | -68.16182 | 1606 ft | 155 kts | 266° |
| 2026-05-07 21:55 | -54.83876 | -68.18010 | 1368 ft | 150 kts | 266° |
| 2026-05-07 21:55 | -54.83946 | -68.19775 | 1146 ft | 145 kts | 266° |
| 2026-05-07 21:55 | -54.84014 | -68.21503 | 923 ft | 143 kts | 266° |
| 2026-05-07 21:56 | -54.84081 | -68.23208 | 698 ft | 142 kts | 266° |
| 2026-05-07 21:56 | -54.84148 | -68.24915 | 484 ft | 142 kts | 266° |
| 2026-05-07 21:56 | -54.84215 | -68.26603 | 267 ft | 141 kts | 266° |
| 2026-05-07 21:56 | -54.84281 | -68.28262 | 86 ft | 136 kts | 265° |
| 2026-05-07 21:57 | -54.84336 | -68.29618 | 87 ft | 81 kts | 267° |
| 2026-05-07 21:57 | -54.84349 | -68.30044 | 85 ft | 2 kts | 266° |
| 2026-05-07 21:57 | -54.84357 | -68.30236 | 80 ft | 20 kts | 266° |
| 2026-05-07 21:57 | -54.84367 | -68.30494 | 81 ft | 23 kts | 265° |
| 2026-05-07 21:58 | -54.84378 | -68.30781 | 83 ft | 22 kts | 266° |
| 2026-05-07 21:58 | -54.84374 | -68.30909 | 84 ft | 8 kts | 294° |
| 2026-05-07 21:58 | -54.84338 | -68.30949 | 88 ft | 6 kts | 348° |
| 2026-05-07 21:58 | -54.84294 | -68.30963 | 87 ft | 7 kts | 352° |
| 2026-05-07 21:59 | -54.84259 | -68.30967 | 87 ft | 4 kts | 356° |
| 2026-05-07 21:59 | -54.84230 | -68.30970 | 84 ft | 4 kts | 356° |
| 2026-05-07 21:59 | -54.84205 | -68.30974 | 86 ft | 3 kts | 355° |
| 2026-05-07 21:59 | -54.84180 | -68.30978 | 83 ft | 5 kts | 354° |
| 2026-05-07 22:00 | -54.84135 | -68.30986 | 86 ft | 9 kts | 354° |
| 2026-05-07 22:00 | -54.84116 | -68.30990 | 85 ft | 1 kts | 352° |
| 2026-05-07 22:00 | -54.84099 | -68.31052 | 83 ft | 8 kts | 277° |
| 2026-05-07 22:00 | -54.84095 | -68.31128 | 84 ft | 5 kts | 283° |
| 2026-05-07 22:01 | -54.84074 | -68.31157 | 86 ft | 3 kts | 340° |
| 2026-05-07 22:01 | -54.84053 | -68.31167 | 86 ft | 3 kts | 346° |
| 2026-05-07 22:01 | -54.84046 | -68.31170 | 83 ft | 1 kts | 348° |
| 2026-05-07 22:01 | -54.84029 | -68.31175 | 85 ft | 0 kts | 350° |